Time;durP1;ratioP1;P1;durP2;ratioP2;P2;SDS_P1;SDS_P2;PMS_P1;PMS_P2;Temp;Humidity;BMP_temperature;BMP_pressure;BME280_temperature;BME280_humidity;BME280_pressure;Samples;Min_cycle;Max_cycle;Signal;HPM_P1;HPM_P2
2023/01/27 00:01:18;;;;;;;12.50;4.22;;;;;;;4.88;100.00;102544.72;2616821;36;20081;-59
2023/01/27 00:03:46;;;;;;;13.32;4.70;;;;;;;4.91;100.00;102553.47;2613958;36;20114;-59
2023/01/27 00:06:15;;;;;;;10.30;4.60;;;;;;;4.86;100.00;102555.44;2615452;36;20037;-58
2023/01/27 00:08:43;;;;;;;13.55;4.47;;;;;;;4.82;100.00;102560.97;2616401;36;20034;-61
2023/01/27 00:13:55;;;;;;;12.55;5.45;;;;;;;4.87;100.00;102567.88;2615942;36;20046;-59
2023/01/27 00:16:23;;;;;;;10.85;4.57;;;;;;;4.99;100.00;102554.97;2616179;31;20030;-60
2023/01/27 00:18:51;;;;;;;15.85;5.50;;;;;;;4.99;100.00;102562.97;2615924;36;20043;-60
2023/01/27 00:26:41;;;;;;;10.82;5.20;;;;;;;4.95;100.00;102550.66;2616319;36;20134;-60
2023/01/27 00:29:12;;;;;;;15.90;5.45;;;;;;;4.94;100.00;102548.97;2616527;31;20035;-60
2023/01/27 00:34:21;;;;;;;12.10;4.80;;;;;;;4.82;100.00;102551.16;2616019;36;20029;-60
2023/01/27 00:36:50;;;;;;;13.18;5.97;;;;;;;4.94;100.00;102556.97;2616582;36;20570;-59
2023/01/27 00:39:18;;;;;;;13.52;5.45;;;;;;;4.87;100.00;102554.53;2617020;31;20027;-59
2023/01/27 00:41:47;;;;;;;11.73;5.65;;;;;;;4.85;100.00;102555.50;2616046;36;20049;-60
2023/01/27 00:44:17;;;;;;;13.77;5.85;;;;;;;4.91;100.00;102553.47;2617009;31;20030;-60
2023/01/27 00:46:46;;;;;;;12.30;5.82;;;;;;;4.93;100.00;102557.88;2616471;36;20038;-60
2023/01/27 00:49:14;;;;;;;17.92;5.80;;;;;;;5.04;100.00;102556.53;2616457;36;20042;-60
2023/01/27 00:51:42;;;;;;;14.00;5.05;;;;;;;5.03;100.00;102559.28;2616236;36;20026;-60
2023/01/27 00:54:11;;;;;;;15.65;5.93;;;;;;;5.06;100.00;102553.81;2616273;36;20038;-60
2023/01/27 00:56:40;;;;;;;17.97;5.93;;;;;;;5.17;100.00;102559.63;2616263;36;20030;-60
2023/01/27 00:59:08;;;;;;;12.77;5.00;;;;;;;5.07;100.00;102555.56;2616063;36;20304;-60
2023/01/27 01:01:39;;;;;;;13.85;6.00;;;;;;;4.96;100.00;102566.66;2616313;36;20431;-60
2023/01/27 01:04:07;;;;;;;12.68;5.72;;;;;;;5.05;100.00;102560.06;2615340;36;20543;-60
2023/01/27 01:06:36;;;;;;;14.25;6.57;;;;;;;5.01;100.00;102558.47;2617142;36;20443;-60
2023/01/27 01:09:04;;;;;;;11.38;5.40;;;;;;;5.00;100.00;102567.41;2616284;36;20026;-60
2023/01/27 01:11:33;;;;;;;21.35;6.68;;;;;;;5.00;100.00;102573.59;2616722;36;20038;-60
2023/01/27 01:14:01;;;;;;;12.55;5.43;;;;;;;4.85;100.00;102556.38;2615281;36;20610;-58
2023/01/27 01:16:29;;;;;;;13.90;5.78;;;;;;;4.86;100.00;102568.78;2615883;36;20049;-59
2023/01/27 01:19:00;;;;;;;11.25;5.43;;;;;;;4.91;100.00;102572.13;2615355;36;20107;-59
2023/01/27 01:21:28;;;;;;;12.85;5.18;;;;;;;4.83;100.00;102574.25;2616162;36;20058;-59
2023/01/27 01:23:57;;;;;;;8.82;4.47;;;;;;;4.95;100.00;102582.69;2615344;36;20038;-59
2023/01/27 01:26:25;;;;;;;11.50;5.45;;;;;;;4.87;100.00;102578.53;2614071;36;20026;-59
2023/01/27 01:28:53;;;;;;;8.90;4.65;;;;;;;4.94;100.00;102583.63;2614081;36;20035;-59
2023/01/27 01:31:22;;;;;;;11.35;5.47;;;;;;;4.85;100.00;102585.72;2614679;36;20443;-59
2023/01/27 01:33:51;;;;;;;18.88;6.55;;;;;;;4.89;100.00;102586.47;2614353;36;20038;-58
2023/01/27 01:36:23;;;;;;;14.07;5.73;;;;;;;4.74;100.00;102587.88;2614964;36;20043;-59
2023/01/27 01:38:56;;;;;;;11.38;5.88;;;;;;;4.71;100.00;102586.22;2613842;36;20299;-59
2023/01/27 01:41:25;;;;;;;13.23;5.85;;;;;;;4.75;100.00;102586.97;2615375;31;20049;-59
2023/01/27 01:43:54;;;;;;;10.90;5.10;;;;;;;4.67;100.00;102586.41;2614895;36;20038;-59
2023/01/27 01:46:22;;;;;;;11.85;5.80;;;;;;;4.78;100.00;102596.66;2616018;31;20042;-59
2023/01/27 01:48:53;;;;;;;13.10;6.45;;;;;;;4.75;100.00;102589.63;2614213;36;20035;-59
2023/01/27 01:51:29;;;;;;;12.55;6.03;;;;;;;4.72;100.00;102587.94;2616463;36;20443;-59
2023/01/27 01:54:01;;;;;;;16.60;7.20;;;;;;;4.81;100.00;102593.88;2616350;36;20037;-59
2023/01/27 01:56:36;;;;;;;15.77;6.90;;;;;;;4.75;100.00;102597.66;2616186;36;20041;-59
2023/01/27 01:59:07;;;;;;;15.98;7.22;;;;;;;4.75;100.00;102605.66;2616558;36;20037;-59
2023/01/27 02:01:36;;;;;;;21.30;7.57;;;;;;;4.75;100.00;102605.66;2616266;36;20042;-59
2023/01/27 02:04:09;;;;;;;16.15;7.35;;;;;;;4.66;100.00;102603.31;2615654;36;20130;-60
2023/01/27 02:06:46;;;;;;;21.30;7.70;;;;;;;4.64;100.00;102607.81;2616271;31;20042;-59
2023/01/27 02:09:14;;;;;;;19.92;7.55;;;;;;;4.57;100.00;102602.72;2616634;31;20492;-59
2023/01/27 02:11:43;;;;;;;15.10;7.22;;;;;;;4.44;100.00;102598.72;2616633;36;20034;-59
2023/01/27 02:14:12;;;;;;;20.88;8.52;;;;;;;4.52;100.00;102601.13;2615603;31;20034;-59
2023/01/27 02:16:41;;;;;;;19.55;9.18;;;;;;;4.42;100.00;102613.03;2616361;36;20031;-59
2023/01/27 02:19:16;;;;;;;20.60;8.27;;;;;;;4.43;100.00;102607.69;2615861;36;20034;-59
2023/01/27 02:21:48;;;;;;;14.38;7.72;;;;;;;4.51;100.00;102608.25;2616289;36;20034;-59
2023/01/27 02:24:16;;;;;;;19.45;8.80;;;;;;;4.50;100.00;102601.19;2616363;36;20121;-59
2023/01/27 02:26:48;;;;;;;14.77;7.38;;;;;;;4.44;100.00;102601.41;2616256;36;20038;-59
2023/01/27 02:29:18;;;;;;;13.52;7.32;;;;;;;4.42;100.00;102607.69;2615953;36;20035;-59
2023/01/27 02:31:46;;;;;;;15.55;8.15;;;;;;;4.38;100.00;102606.94;2616492;36;20050;-58
2023/01/27 02:34:18;;;;;;;18.02;8.20;;;;;;;4.36;100.00;102615.00;2615961;36;20031;-59
2023/01/27 02:36:50;;;;;;;14.85;7.75;;;;;;;4.43;100.00;102615.69;2616030;31;20535;-59
2023/01/27 02:39:23;;;;;;;17.90;7.97;;;;;;;4.51;100.00;102618.94;2616632;36;20041;-59
2023/01/27 02:41:56;;;;;;;15.43;7.15;;;;;;;4.51;100.00;102618.94;2616284;36;20047;-60
2023/01/27 02:44:25;;;;;;;15.20;8.00;;;;;;;4.41;100.00;102621.97;2616211;31;20053;-59
2023/01/27 02:46:53;;;;;;;16.38;8.40;;;;;;;4.47;100.00;102617.28;2616301;36;20042;-59
2023/01/27 02:49:21;;;;;;;18.17;8.80;;;;;;;4.37;100.00;102618.53;2616252;36;20034;-59
2023/01/27 02:51:50;;;;;;;15.18;8.13;;;;;;;4.40;100.00;102629.09;2616325;36;20038;-59
2023/01/27 02:54:18;;;;;;;14.48;8.32;;;;;;;4.30;100.00;102620.53;2616240;36;20041;-59
2023/01/27 02:56:46;;;;;;;17.05;7.97;;;;;;;4.46;100.00;102630.66;2616088;36;20038;-60
2023/01/27 02:59:17;;;;;;;13.68;7.15;;;;;;;4.55;100.00;102623.22;2615829;36;20030;-60
2023/01/27 03:01:46;;;;;;;14.70;8.82;;;;;;;4.43;100.00;102629.00;2616102;31;20031;-60
2023/01/27 03:04:14;;;;;;;14.73;7.67;;;;;;;4.40;100.00;102631.75;2615275;36;20042;-59
2023/01/27 03:06:43;;;;;;;13.97;7.10;;;;;;;4.56;100.00;102627.66;2615894;36;20026;-60
2023/01/27 03:09:11;;;;;;;13.35;7.18;;;;;;;4.39;100.00;102630.03;2616310;36;20296;-60
2023/01/27 03:19:52;;;;;;;13.80;7.38;;;;;;;4.44;100.00;102619.19;2614059;36;20059;-59
2023/01/27 03:22:20;;;;;;;12.07;6.63;;;;;;;4.48;100.00;102627.03;2615079;36;20046;-60
2023/01/27 03:24:48;;;;;;;11.60;6.97;;;;;;;4.45;100.00;102613.81;2615612;36;20566;-59
2023/01/27 03:27:17;;;;;;;11.93;6.22;;;;;;;4.48;100.00;102619.03;2616044;36;20740;-60
2023/01/27 03:29:57;;;;;;;12.80;6.82;;;;;;;4.43;100.00;102618.34;2615658;36;20049;-59
2023/01/27 03:32:26;;;;;;;11.10;6.45;;;;;;;4.40;100.00;102621.09;2615869;36;20498;-59
2023/01/27 03:34:56;;;;;;;10.85;6.35;;;;;;;4.46;100.00;102631.56;2615857;36;20042;-59
2023/01/27 03:48:16;;;;;;;9.45;5.40;;;;;;;4.55;100.00;102628.56;2615505;31;20041;-60
2023/01/27 03:50:44;;;;;;;10.35;5.40;;;;;;;4.74;100.00;102641.25;2615671;36;20057;-60
2023/01/27 03:53:13;;;;;;;8.98;4.55;;;;;;;4.62;100.00;102636.34;2615836;31;20043;-60
2023/01/27 03:55:41;;;;;;;8.23;4.95;;;;;;;4.59;100.00;102636.47;2615704;36;20026;-60
2023/01/27 03:58:19;;;;;;;8.02;5.13;;;;;;;4.60;100.00;102639.06;2615068;36;20038;-59
2023/01/27 04:00:53;;;;;;;16.42;5.30;;;;;;;4.66;100.00;102643.31;2615220;36;20198;-59
2023/01/27 04:08:50;;;;;;;6.47;3.88;;;;;;;4.57;100.00;102642.72;2616092;36;20130;-60
2023/01/27 04:14:02;;;;;;;5.35;3.45;;;;;;;4.71;100.00;102646.69;2615368;36;20046;-60
2023/01/27 04:16:35;;;;;;;7.07;4.20;;;;;;;4.61;100.00;102650.59;2616061;36;20130;-59
2023/01/27 04:19:04;;;;;;;6.97;3.85;;;;;;;4.63;100.00;102654.09;2616049;36;20057;-59
2023/01/27 04:21:33;;;;;;;6.72;3.67;;;;;;;4.75;100.00;102659.00;2615185;31;20038;-59
2023/01/27 04:24:02;;;;;;;6.60;3.85;;;;;;;4.68;100.00;102652.13;2616081;36;20038;-60
2023/01/27 04:26:33;;;;;;;5.75;3.53;;;;;;;4.73;100.00;102659.06;2616099;36;20037;-59
2023/01/27 04:29:06;;;;;;;6.47;3.60;;;;;;;4.69;100.00;102653.88;2616023;54;20061;-60
2023/01/27 04:31:37;;;;;;;7.43;3.83;;;;;;;4.64;100.00;102653.16;2616141;36;20046;-60
2023/01/27 04:34:05;;;;;;;5.45;3.47;;;;;;;4.61;100.00;102658.59;2615237;36;20043;-60
2023/01/27 04:36:34;;;;;;;6.15;3.72;;;;;;;4.61;100.00;102664.81;2615423;36;20503;-59
2023/01/27 04:39:02;;;;;;;7.57;3.87;;;;;;;4.66;100.00;102664.66;2616687;36;20046;-60
2023/01/27 04:41:30;;;;;;;8.43;3.78;;;;;;;4.56;100.00;102665.00;2616193;36;20046;-59
2023/01/27 04:43:59;;;;;;;6.53;3.60;;;;;;;4.65;100.00;102663.81;2616801;36;20033;-59
2023/01/27 04:46:27;;;;;;;5.25;3.63;;;;;;;4.61;100.00;102662.16;2616896;36;20046;-60
2023/01/27 04:48:58;;;;;;;4.47;3.08;;;;;;;4.66;100.00;102659.31;2616220;36;20034;-60
2023/01/27 04:51:27;;;;;;;4.85;3.45;;;;;;;4.72;100.00;102656.44;2616978;36;20439;-60
2023/01/27 04:53:55;;;;;;;5.60;3.50;;;;;;;4.71;100.00;102657.34;2616819;36;20045;-60
2023/01/27 04:56:26;;;;;;;4.70;3.70;;;;;;;4.68;100.00;102662.81;2616613;36;20428;-59
2023/01/27 04:58:55;;;;;;;7.75;4.57;;;;;;;4.65;100.00;102663.81;2617195;36;20435;-60
2023/01/27 05:01:24;;;;;;;6.43;3.53;;;;;;;4.67;100.00;102661.06;2616681;36;20035;-60
2023/01/27 05:03:52;;;;;;;5.25;3.88;;;;;;;4.68;100.00;102663.69;2616083;36;20071;-60
2023/01/27 05:06:23;;;;;;;6.43;3.88;;;;;;;4.72;100.00;102665.31;2616206;36;20026;-59
2023/01/27 05:08:52;;;;;;;6.70;3.72;;;;;;;4.60;100.00;102662.22;2616682;31;20042;-60
2023/01/27 05:11:21;;;;;;;6.15;4.30;;;;;;;4.70;100.00;102664.50;2616340;36;20061;-59
2023/01/27 05:13:50;;;;;;;5.93;3.78;;;;;;;4.69;100.00;102672.56;2616451;36;20034;-60
2023/01/27 05:16:20;;;;;;;5.38;3.67;;;;;;;4.67;100.00;102677.94;2616344;36;20039;-59
2023/01/27 05:18:50;;;;;;;6.22;3.85;;;;;;;4.63;100.00;102672.78;2615952;36;20038;-59
2023/01/27 05:21:23;;;;;;;4.22;3.03;;;;;;;4.46;100.00;102674.22;2616467;36;20447;-60
2023/01/27 05:23:52;;;;;;;4.60;3.05;;;;;;;4.58;100.00;102672.94;2616687;36;20035;-59
2023/01/27 05:26:23;;;;;;;6.45;3.05;;;;;;;4.61;100.00;102683.50;2634355;36;20037;-59
2023/01/27 05:28:53;;;;;;;6.88;3.25;;;;;;;4.64;100.00;102683.38;2615880;36;20035;-59
2023/01/27 05:31:23;;;;;;;6.80;3.05;;;;;;;4.68;100.00;102678.81;2617242;36;20447;-59
2023/01/27 05:33:53;;;;;;;7.07;2.70;;;;;;;4.57;100.00;102677.38;2615990;36;20031;-60
2023/01/27 05:36:25;;;;;;;4.03;2.85;;;;;;;4.62;100.00;102682.53;2614520;36;20547;-60
2023/01/27 05:38:57;;;;;;;5.55;2.63;;;;;;;4.61;100.00;102678.16;2616759;36;20061;-60
2023/01/27 05:41:25;;;;;;;4.68;2.35;;;;;;;4.59;100.00;102687.13;2616320;36;20038;-60
2023/01/27 05:43:55;;;;;;;3.63;2.37;;;;;;;4.57;100.00;102687.19;2616664;36;20041;-60
2023/01/27 05:46:25;;;;;;;2.65;2.25;;;;;;;4.65;100.00;102692.25;2616015;36;20042;-59
2023/01/27 05:48:55;;;;;;;6.10;3.20;;;;;;;4.60;100.00;102696.88;2616389;36;20065;-60
2023/01/27 05:51:28;;;;;;;3.50;2.40;;;;;;;4.52;100.00;102695.34;2615462;36;20045;-59
2023/01/27 05:53:56;;;;;;;5.68;2.40;;;;;;;4.58;100.00;102704.94;2616905;36;20555;-61
2023/01/27 05:56:25;;;;;;;4.25;2.83;;;;;;;4.55;100.00;102707.72;2615673;36;20084;-61
2023/01/27 05:58:55;;;;;;;3.95;2.55;;;;;;;4.50;100.00;102707.84;2616558;36;20129;-60
2023/01/27 06:01:24;;;;;;;4.25;2.90;;;;;;;4.51;100.00;102708.72;2615700;36;20048;-62
2023/01/27 06:03:53;;;;;;;3.97;2.80;;;;;;;4.43;100.00;102709.00;2615409;36;20480;-60
2023/01/27 06:06:23;;;;;;;4.35;2.53;;;;;;;4.53;100.00;102721.09;2615763;36;20038;-60
2023/01/27 06:08:55;;;;;;;4.15;2.67;;;;;;;4.62;100.00;102709.22;2616639;36;20436;-59
2023/01/27 06:11:24;;;;;;;7.28;3.00;;;;;;;4.49;100.00;102716.78;2615687;36;20026;-62
2023/01/27 06:13:53;;;;;;;3.42;2.67;;;;;;;4.45;100.00;102720.47;2614509;36;20034;-60
2023/01/27 06:16:23;;;;;;;5.20;2.90;;;;;;;4.51;100.00;102720.25;2615582;31;20038;-60
2023/01/27 06:18:52;;;;;;;3.65;2.53;;;;;;;4.50;100.00;102717.63;2615906;36;20042;-59
2023/01/27 06:21:20;;;;;;;7.10;3.00;;;;;;;4.46;100.00;102722.22;2616266;36;20438;-58
2023/01/27 06:23:49;;;;;;;3.40;2.72;;;;;;;4.33;100.00;102727.06;2616275;31;20039;-58
2023/01/27 06:26:21;;;;;;;3.95;2.85;;;;;;;4.23;100.00;102733.63;2615139;36;20061;-59
2023/01/27 06:28:49;;;;;;;4.50;2.38;;;;;;;4.41;100.00;102732.16;2616379;36;20030;-60
2023/01/27 06:31:20;;;;;;;3.92;2.70;;;;;;;4.31;100.00;102730.69;2615438;36;20427;-61
2023/01/27 06:33:49;;;;;;;4.18;2.70;;;;;;;4.37;100.00;102738.50;2615442;36;20456;-60
2023/01/27 06:36:19;;;;;;;3.83;2.53;;;;;;;4.28;100.00;102739.66;2615389;36;20042;-59
2023/01/27 06:38:48;;;;;;;4.22;2.47;;;;;;;4.41;100.00;102739.28;2615355;36;20035;-61
2023/01/27 06:41:16;;;;;;;3.80;2.67;;;;;;;4.43;100.00;102748.09;2615742;31;20042;-59
2023/01/27 06:43:48;;;;;;;5.20;2.77;;;;;;;4.40;100.00;102743.72;2615172;36;20034;-61
2023/01/27 06:46:16;;;;;;;5.72;2.50;;;;;;;4.34;100.00;102738.59;2615827;36;20400;-59
2023/01/27 06:48:44;;;;;;;4.03;2.53;;;;;;;4.37;100.00;102749.16;2614036;36;20046;-61
2023/01/27 06:51:13;;;;;;;4.40;2.30;;;;;;;4.45;100.00;102738.28;2615952;31;20443;-60
2023/01/27 06:53:41;;;;;;;3.75;2.47;;;;;;;4.37;100.00;102723.38;2615372;36;20039;-60
2023/01/27 06:56:10;;;;;;;3.95;2.50;;;;;;;4.33;100.00;102732.41;2614675;36;20029;-61
2023/01/27 06:58:38;;;;;;;4.07;2.50;;;;;;;4.21;100.00;102732.78;2615834;36;20042;-61
2023/01/27 07:01:09;;;;;;;2.78;2.13;;;;;;;4.32;100.00;102724.47;2615600;36;20027;-61
2023/01/27 07:03:37;;;;;;;7.40;2.55;;;;;;;4.34;100.00;102725.25;2615517;36;20044;-60
2023/01/27 07:06:06;;;;;;;4.75;2.42;;;;;;;4.28;100.00;102733.47;2616175;31;20049;-61
2023/01/27 07:08:34;;;;;;;4.80;2.42;;;;;;;4.27;100.00;102739.72;2616494;31;20065;-59
2023/01/27 07:11:04;;;;;;;5.53;2.28;;;;;;;4.23;100.00;102730.94;2615954;36;20045;-59
2023/01/27 07:13:33;;;;;;;4.57;2.38;;;;;;;4.20;100.00;102742.56;2616503;36;20463;-59
2023/01/27 07:16:01;;;;;;;4.63;2.35;;;;;;;4.28;100.00;102729.00;2616235;36;20049;-61
2023/01/27 07:18:32;;;;;;;5.13;2.78;;;;;;;4.30;100.00;102737.84;2615818;36;20042;-61
2023/01/27 07:21:07;;;;;;;3.67;2.45;;;;;;;4.19;100.00;102740.81;2616406;36;20038;-61
2023/01/27 07:23:36;;;;;;;7.60;2.72;;;;;;;4.18;100.00;102747.09;2616554;36;20046;-61
2023/01/27 07:26:04;;;;;;;5.75;3.05;;;;;;;4.26;100.00;102746.84;2615503;36;20027;-60
2023/01/27 07:28:33;;;;;;;11.20;3.28;;;;;;;4.17;100.00;102747.13;2616947;31;20053;-61
2023/01/27 07:31:02;;;;;;;9.75;3.22;;;;;;;4.17;100.00;102742.69;2616112;36;20559;-61
2023/01/27 07:33:33;;;;;;;7.97;3.92;;;;;;;4.12;100.00;102759.72;2615928;36;20034;-59
2023/01/27 07:36:02;;;;;;;8.30;3.25;;;;;;;4.19;100.00;102762.13;2616210;36;20038;-60
2023/01/27 07:38:30;;;;;;;6.03;2.80;;;;;;;4.15;100.00;102764.94;2615930;31;20038;-59
2023/01/27 07:40:59;;;;;;;11.27;4.43;;;;;;;4.13;100.00;102761.47;2615739;36;20034;-60
2023/01/27 07:43:27;;;;;;;8.13;4.22;;;;;;;4.31;100.00;102770.69;2616761;31;20082;-60
2023/01/27 07:45:56;;;;;;;8.27;3.60;;;;;;;4.25;100.00;102771.75;2613254;36;20031;-61
2023/01/27 07:48:25;;;;;;;9.88;3.17;;;;;;;4.14;100.00;102766.75;2615018;36;20038;-61
2023/01/27 07:50:55;;;;;;;5.57;2.80;;;;;;;4.03;100.00;102777.75;2615687;36;20030;-61
2023/01/27 07:53:24;;;;;;;3.97;2.70;;;;;;;4.11;100.00;102771.28;2615507;36;20519;-59
2023/01/27 07:55:52;;;;;;;6.55;2.70;;;;;;;4.28;100.00;102778.78;2615235;36;20582;-60
2023/01/27 07:58:21;;;;;;;5.07;3.33;;;;;;;4.23;100.00;102770.06;2615612;36;20030;-62
2023/01/27 08:00:49;;;;;;;5.87;2.90;;;;;;;4.27;100.00;102771.69;2615948;36;20082;-60
2023/01/27 08:03:27;;;;;;;4.90;2.70;;;;;;;4.18;100.00;102771.09;2615568;36;20536;-61
2023/01/27 08:05:58;;;;;;;4.90;2.40;;;;;;;4.21;100.00;102778.97;2615773;36;20451;-61
2023/01/27 08:08:26;;;;;;;6.65;2.42;;;;;;;4.26;100.00;102777.97;2613582;36;20451;-61
2023/01/27 08:10:54;;;;;;;5.45;2.35;;;;;;;4.32;100.00;102777.78;2615841;31;20054;-60
2023/01/27 08:13:23;;;;;;;4.43;2.30;;;;;;;4.32;100.00;102789.28;2616108;36;20038;-60
2023/01/27 08:15:57;;;;;;;5.05;2.38;;;;;;;4.30;100.00;102784.91;2616517;36;20042;-59
2023/01/27 08:18:26;;;;;;;3.55;2.47;;;;;;;4.34;100.00;102783.91;2616155;36;20023;-61
2023/01/27 08:20:54;;;;;;;3.83;2.35;;;;;;;4.26;100.00;102785.97;2616535;36;20062;-60
2023/01/27 08:23:25;;;;;;;3.87;2.43;;;;;;;4.24;100.00;102782.44;2616641;36;20038;-59
2023/01/27 08:25:55;;;;;;;3.75;2.42;;;;;;;4.15;100.00;102792.50;2616835;36;20711;-60
2023/01/27 08:28:23;;;;;;;;;;;;;;;4.06;100.00;102791.88;2616504;31;20065;-61
2023/01/27 08:30:52;;;;;;;3.27;1.80;;;;;;;4.11;100.00;102790.84;2616178;36;20466;-61
2023/01/27 08:33:22;;;;;;;4.75;2.30;;;;;;;4.25;100.00;102790.41;2616532;36;20390;-61
2023/01/27 08:35:51;;;;;;;6.82;2.80;;;;;;;4.37;100.00;102787.38;2616999;36;20407;-61
2023/01/27 08:38:20;;;;;;;6.45;2.70;;;;;;;4.40;100.00;102797.03;2615853;31;20065;-61
2023/01/27 08:40:51;;;;;;;4.38;2.55;;;;;;;4.49;100.00;102794.09;2616201;36;20043;-60
2023/01/27 08:43:20;;;;;;;3.50;2.65;;;;;;;4.46;100.00;102794.22;2616650;36;20427;-61
2023/01/27 08:45:48;;;;;;;5.00;2.80;;;;;;;4.36;100.00;102796.28;2617035;36;20046;-59
2023/01/27 08:48:16;;;;;;;5.38;2.97;;;;;;;4.39;100.00;102796.19;2616050;36;20026;-61
2023/01/27 08:50:45;;;;;;;4.35;2.40;;;;;;;4.32;100.00;102793.75;2616769;31;20034;-60
2023/01/27 08:53:13;;;;;;;6.10;3.20;;;;;;;4.35;100.00;102799.00;2616343;36;20575;-60
2023/01/27 08:55:42;;;;;;;4.85;2.63;;;;;;;4.52;100.00;102809.13;2616374;36;20026;-61
2023/01/27 08:58:12;;;;;;;6.38;2.90;;;;;;;4.60;100.00;102809.75;2616220;36;20047;-60
2023/01/27 09:00:41;;;;;;;6.38;2.60;;;;;;;4.55;100.00;102807.25;2617014;36;20030;-60
2023/01/27 09:03:09;;;;;;;3.65;2.78;;;;;;;4.46;100.00;102806.66;2616351;36;20031;-59
2023/01/27 09:05:39;;;;;;;4.90;2.80;;;;;;;4.35;100.00;102809.66;2616447;36;20410;-61
2023/01/27 09:08:07;;;;;;;;;;;;;;;4.35;100.00;102799.84;2616019;36;20045;-60
2023/01/27 09:10:39;;;;;;;4.63;2.92;;;;;;;4.27;100.00;102811.69;2616470;36;19945;-61
2023/01/27 09:13:07;;;;;;;4.80;3.00;;;;;;;4.23;100.00;102818.91;2616259;36;20165;-61
2023/01/27 09:15:39;;;;;;;5.82;3.33;;;;;;;4.23;100.00;102823.38;2616045;36;20547;-60
2023/01/27 09:18:08;;;;;;;6.50;2.92;;;;;;;4.23;100.00;102832.25;2616304;31;20061;-62
2023/01/27 09:20:36;;;;;;;6.20;3.22;;;;;;;4.25;100.00;102819.72;2616223;36;20023;-61
2023/01/27 09:23:05;;;;;;;5.43;3.83;;;;;;;4.19;100.00;102831.44;2616516;36;20074;-60
2023/01/27 09:25:52;;;;;;;5.72;3.05;;;;;;;4.20;100.00;102833.19;2620071;36;20216;-58
2023/01/27 09:28:20;;;;;;;5.47;2.70;;;;;;;4.29;100.00;102841.84;2619792;36;20559;-58
2023/01/27 09:30:48;;;;;;;3.88;2.75;;;;;;;4.39;100.00;102843.31;2620352;31;20531;-58
2023/01/27 09:33:17;;;;;;;4.05;2.92;;;;;;;4.23;100.00;102847.38;2620096;31;20038;-58
2023/01/27 09:35:49;;;;;;;8.00;2.70;;;;;;;4.36;100.00;102833.59;2620241;36;20034;-59
2023/01/27 09:38:21;;;;;;;7.20;2.95;;;;;;;4.24;100.00;102838.44;2620068;36;20045;-59
2023/01/27 09:41:10;;;;;;;5.45;2.60;;;;;;;4.38;100.00;102846.88;2620259;36;20026;-59
2023/01/27 09:44:00;;;;;;;3.97;2.40;;;;;;;4.52;100.00;102839.34;2619972;36;20192;-59
2023/01/27 09:46:56;;;;;;;3.95;2.35;;;;;;;4.46;100.00;102850.22;2620086;36;20536;-58
2023/01/27 09:49:41;;;;;;;7.88;2.67;;;;;;;4.41;100.00;102852.13;2620383;36;20040;-58
2023/01/27 09:52:25;;;;;;;6.82;3.28;;;;;;;4.57;100.00;102856.06;2621013;36;20403;-59
2023/01/27 09:55:04;;;;;;;4.20;2.92;;;;;;;4.85;100.00;102854.31;2619908;36;20034;-58
2023/01/27 09:57:44;;;;;;;6.53;2.83;;;;;;;4.95;100.00;102844.19;2620914;31;20030;-58
2023/01/27 10:00:29;;;;;;;5.10;2.50;;;;;;;5.13;100.00;102858.75;2619880;31;20054;-59
2023/01/27 10:03:17;;;;;;;6.75;3.20;;;;;;;4.99;100.00;102856.53;2618042;36;20065;-59
2023/01/27 10:06:18;;;;;;;5.60;2.80;;;;;;;4.98;100.00;102860.13;2620142;36;20045;-59
2023/01/27 10:09:05;;;;;;;5.80;3.25;;;;;;;4.86;100.00;102869.41;2619174;36;20129;-59
2023/01/27 10:11:45;;;;;;;7.43;3.25;;;;;;;4.71;100.00;102858.31;2620464;36;20041;-58
2023/01/27 10:14:28;;;;;;;8.77;3.97;;;;;;;4.70;100.00;102863.69;2620365;36;20438;-60
2023/01/27 10:17:13;;;;;;;5.75;3.40;;;;;;;4.71;100.00;102857.41;2620060;36;20039;-58
2023/01/27 10:20:00;;;;;;;3.80;3.13;;;;;;;4.66;100.00;102849.56;2620452;36;20041;-58
2023/01/27 10:22:38;;;;;;;5.45;3.03;;;;;;;4.78;100.00;102856.28;2620870;31;20038;-59
2023/01/27 10:25:17;;;;;;;7.03;3.30;;;;;;;4.95;100.00;102854.88;2620505;36;20453;-59
2023/01/27 10:27:49;;;;;;;6.05;3.00;;;;;;;5.11;100.00;102872.16;2618438;36;20129;-57
2023/01/27 10:30:29;;;;;;;6.95;3.30;;;;;;;4.98;100.00;102861.00;2619573;36;20041;-59
2023/01/27 10:33:03;;;;;;;;;;;;;;;4.94;100.00;102871.81;2620315;36;20038;-58
2023/01/27 10:35:39;;;;;;;6.15;3.28;;;;;;;4.93;100.00;102864.72;2618931;36;20106;-60
2023/01/27 10:38:16;;;;;;;8.38;3.50;;;;;;;5.03;100.00;102874.19;2616608;36;20042;-59
2023/01/27 10:40:52;;;;;;;4.70;2.72;;;;;;;4.97;100.00;102867.25;2616603;36;20038;-59
2023/01/27 10:43:30;;;;;;;4.57;2.95;;;;;;;5.03;100.00;102863.50;2616346;36;20049;-58
2023/01/27 10:46:12;;;;;;;5.40;3.20;;;;;;;5.15;100.00;102859.56;2616855;36;20045;-59
2023/01/27 10:48:47;;;;;;;4.25;3.10;;;;;;;5.13;100.00;102861.41;2615815;36;20038;-59
2023/01/27 10:51:21;;;;;;;3.97;3.05;;;;;;;5.16;100.00;102866.66;2616688;36;20535;-59
2023/01/27 10:53:58;;;;;;;4.10;3.20;;;;;;;5.26;100.00;102855.59;2617410;31;20501;-58
2023/01/27 10:56:34;;;;;;;12.32;5.53;;;;;;;5.40;100.00;102862.25;2616178;36;20137;-58
2023/01/27 10:59:08;;;;;;;4.53;2.92;;;;;;;5.44;100.00;102862.09;2616550;36;20448;-59
2023/01/27 11:01:42;;;;;;;7.30;2.95;;;;;;;5.23;100.00;102866.38;2616774;31;20145;-58
2023/01/27 11:04:15;;;;;;;4.55;3.20;;;;;;;5.34;100.00;102859.81;2615936;36;20061;-57
2023/01/27 11:06:45;;;;;;;5.07;2.95;;;;;;;5.54;100.00;102857.31;2616202;36;20038;-57
2023/01/27 11:12:02;;;;;;;4.65;2.63;;;;;;;5.45;100.00;102857.66;2619513;36;20192;-58
2023/01/27 11:14:33;;;;;;;4.00;2.60;;;;;;;5.53;100.00;102857.38;2619669;36;20062;-57
2023/01/27 11:17:12;;;;;;;4.43;2.70;;;;;;;5.49;100.00;102851.28;2619671;36;20030;-59
2023/01/27 11:19:47;;;;;;;4.68;2.80;;;;;;;5.32;100.00;102846.50;2620144;31;20026;-58
2023/01/27 11:22:25;;;;;;;3.92;2.75;;;;;;;5.56;100.00;102850.09;2619756;36;20130;-58
2023/01/27 11:25:02;;;;;;;7.57;3.42;;;;;;;5.81;100.00;102845.69;2620470;36;20026;-58
2023/01/27 11:27:54;;;;;;;4.57;2.97;;;;;;;5.57;100.00;102835.84;2620441;36;20038;-58
2023/01/27 11:30:28;;;;;;;3.92;2.92;;;;;;;5.80;100.00;102847.50;2619907;36;20030;-58
2023/01/27 11:33:06;;;;;;;7.80;3.10;;;;;;;5.65;100.00;102838.22;2619967;36;20441;-59
2023/01/27 11:35:35;;;;;;;4.55;2.90;;;;;;;5.50;100.00;102834.31;2620152;36;20034;-59
2023/01/27 11:38:03;;;;;;;4.47;2.90;;;;;;;5.83;100.00;102836.72;2620462;36;20030;-59
2023/01/27 11:40:36;;;;;;;4.10;3.05;;;;;;;5.90;100.00;102827.53;2620169;31;20049;-59
2023/01/27 11:43:07;;;;;;;3.78;2.80;;;;;;;6.01;100.00;102826.25;2620322;36;20138;-59
2023/01/27 11:45:37;;;;;;;5.38;2.80;;;;;;;6.03;100.00;102821.75;2620384;36;20041;-59
2023/01/27 11:48:13;;;;;;;4.88;3.05;;;;;;;5.87;100.00;102827.63;2619249;36;20034;-58
2023/01/27 11:50:43;;;;;;;4.38;2.75;;;;;;;5.89;100.00;102825.78;2620413;31;20623;-59
2023/01/27 11:53:18;;;;;;;4.25;2.55;;;;;;;6.03;100.00;102824.41;2620112;36;20539;-59
2023/01/27 11:55:51;;;;;;;4.35;3.05;;;;;;;6.08;100.00;102819.75;2620529;36;20593;-59
2023/01/27 11:58:27;;;;;;;19.08;15.68;;;;;;;6.02;100.00;102814.66;2620126;31;20547;-59
2023/01/27 12:00:58;;;;;;;9.95;8.95;;;;;;;5.96;100.00;102816.59;2619911;36;20034;-58
2023/01/27 12:03:47;;;;;;;7.50;5.38;;;;;;;5.76;100.00;102811.13;2617553;36;20578;-58
2023/01/27 12:06:19;;;;;;;6.47;3.70;;;;;;;5.63;100.00;102817.84;2618377;36;20034;-58
2023/01/27 12:08:49;;;;;;;3.70;2.60;;;;;;;5.64;100.00;102819.56;2618686;36;20042;-58
2023/01/27 12:11:23;;;;;;;4.35;2.70;;;;;;;5.30;100.00;102804.75;2620187;36;20058;-58
2023/01/27 12:13:57;;;;;;;8.93;4.57;;;;;;;5.24;100.00;102804.06;2619925;31;20038;-58
2023/01/27 12:16:29;;;;;;;4.30;2.88;;;;;;;5.48;100.00;102798.78;2619561;36;20499;-58
2023/01/27 12:19:02;;;;;;;7.63;3.78;;;;;;;5.35;100.00;102795.66;2620006;36;20049;-59
2023/01/27 12:21:47;;;;;;;6.10;4.05;;;;;;;5.44;100.00;102807.81;2619322;36;20062;-59
2023/01/27 12:24:26;;;;;;;5.13;3.33;;;;;;;5.53;100.00;102806.63;2616525;31;20041;-59